LDZA METAR and TAF | Updated Today

LDZA METAR

Zagreb Airport

Observation time: 11 min. ago

LDZA 200730Z 23005KT 180V280 CAVOK 20/08 Q1024 TEMPO 22007KT

Need help? Read our tutorial on how to read METARs or read the parsed version below.

Zagreb Airport (LDZA) METAR

  • Weather conditions on Fri, 20 May 2022 07:30:00 +0000 (11 min. ago):
  • Present conditions: Dry
  • Clouds: Clear skies
  • Visibility: Greater than 10 km
  • Wind: 230 degrees at 5 knots
  • Temperature: 20 celsius
  • Dew point: 8 celsius
  • Pressure: 1024 millibars
  • Remarks: None


Useful to know...

LDZA TAF

Zagreb Airport

TAF LDZA 200525Z 2006/2106 22006KT CAVOK TX32/2013Z TN14/2006Z
Observation time: 2:16 hr. ago
Need help? Read our tutorial on how to read TAFs or read the parsed version below.

Parsed version of TAF for Zagreb Airport (LDZA)

  • From 20 May at 06:00 UTC, to day 21 of the month at 06:00 UTC
  • Visibility: Greater than 10 km
  • Wind: 220 degrees at 6

Airports near LDZA